KUCY/UCY METAR and TAF weather

Enter ICAO airport designator
Station Type Date Time Source
KUCY METAR 2022/11/30 09:55 UTC NOAA

KUCY 300955Z AUTO 34014G24KT 10SM OVC029 04/M00 A3008 RMK A01


Station Type Date Time Source
KUCY Decoded METAR 2022/11/30 09:55 UTC NOAA

Station name not available
Nov 30, 2022 - 04:55 AM EST / 2022.11.30 0955 UTC
Wind: from the NNW (340 degrees) at 16 MPH (14 KT) gusting to 28 MPH (24 KT):0
Visibility: 10 mile(s):0
Sky conditions: overcast
Temperature: 39 F (4 C)
Dew Point: 32 F (0 C)
Relative Humidity: 75%
Pressure (altimeter): 30.08 in. Hg (1018 hPa)
ob: KUCY 300955Z AUTO 34014G24KT 10SM OVC029 04/M00 A3008 RMK A01
cycle: 10

Station Type Date Time Source
KUCY TAF UTC NOAA

Error!

Example: see airport list